sensor_id;sensor_type;location;lat;lon;timestamp;temperature;humidity
25825;DHT22;13658;44.534;18.694;2022-07-04T00:00:23;24.40;99.90
25825;DHT22;13658;44.534;18.694;2022-07-04T00:02:50;24.30;99.90
25825;DHT22;13658;44.534;18.694;2022-07-04T00:05:17;24.30;99.90
25825;DHT22;13658;44.534;18.694;2022-07-04T00:07:46;24.30;99.90
25825;DHT22;13658;44.534;18.694;2022-07-04T00:10:15;24.30;99.90
25825;DHT22;13658;44.534;18.694;2022-07-04T00:12:41;24.20;99.90
25825;DHT22;13658;44.534;18.694;2022-07-04T00:15:08;24.10;99.90
25825;DHT22;13658;44.534;18.694;2022-07-04T00:17:34;24.10;99.90
25825;DHT22;13658;44.534;18.694;2022-07-04T00:20:01;24.20;99.90
25825;DHT22;13658;44.534;18.694;2022-07-04T00:22:27;24.10;99.90
25825;DHT22;13658;44.534;18.694;2022-07-04T00:24:53;24.10;99.90
25825;DHT22;13658;44.534;18.694;2022-07-04T00:27:19;24.10;99.90
25825;DHT22;13658;44.534;18.694;2022-07-04T00:29:45;24.10;99.90
25825;DHT22;13658;44.534;18.694;2022-07-04T00:32:11;24.00;99.90
25825;DHT22;13658;44.534;18.694;2022-07-04T00:34:37;24.10;99.90
25825;DHT22;13658;44.534;18.694;2022-07-04T00:37:03;24.10;99.90
25825;DHT22;13658;44.534;18.694;2022-07-04T00:39:30;24.10;99.90
25825;DHT22;13658;44.534;18.694;2022-07-04T00:41:56;24.10;99.90
25825;DHT22;13658;44.534;18.694;2022-07-04T00:44:22;24.20;99.90
25825;DHT22;13658;44.534;18.694;2022-07-04T00:46:49;24.10;99.90
25825;DHT22;13658;44.534;18.694;2022-07-04T00:49:16;24.00;99.90
25825;DHT22;13658;44.534;18.694;2022-07-04T00:51:43;24.00;99.90
25825;DHT22;13658;44.534;18.694;2022-07-04T00:54:15;24.10;99.90
25825;DHT22;13658;44.534;18.694;2022-07-04T00:56:44;24.10;99.90
25825;DHT22;13658;44.534;18.694;2022-07-04T00:59:11;24.10;99.90
25825;DHT22;13658;44.534;18.694;2022-07-04T01:01:38;24.10;99.90
25825;DHT22;13658;44.534;18.694;2022-07-04T01:04:05;23.90;99.90
25825;DHT22;13658;44.534;18.694;2022-07-04T01:06:32;24.00;99.90
25825;DHT22;13658;44.534;18.694;2022-07-04T01:08:59;23.90;99.90
25825;DHT22;13658;44.534;18.694;2022-07-04T01:11:26;23.90;99.90
25825;DHT22;13658;44.534;18.694;2022-07-04T01:13:54;23.90;99.90
25825;DHT22;13658;44.534;18.694;2022-07-04T01:16:20;23.90;99.90
25825;DHT22;13658;44.534;18.694;2022-07-04T01:18:46;23.80;99.90
25825;DHT22;13658;44.534;18.694;2022-07-04T01:21:12;23.80;99.90
25825;DHT22;13658;44.534;18.694;2022-07-04T01:23:39;23.70;99.90
25825;DHT22;13658;44.534;18.694;2022-07-04T01:26:05;23.60;99.90
25825;DHT22;13658;44.534;18.694;2022-07-04T01:28:32;23.50;99.90
25825;DHT22;13658;44.534;18.694;2022-07-04T01:30:58;23.50;99.90
25825;DHT22;13658;44.534;18.694;2022-07-04T01:33:24;23.50;99.90
25825;DHT22;13658;44.534;18.694;2022-07-04T01:35:50;23.60;99.90
25825;DHT22;13658;44.534;18.694;2022-07-04T01:38:16;23.40;99.90
25825;DHT22;13658;44.534;18.694;2022-07-04T01:40:42;23.30;99.90
25825;DHT22;13658;44.534;18.694;2022-07-04T01:43:08;23.20;99.90
25825;DHT22;13658;44.534;18.694;2022-07-04T01:45:35;23.30;99.90
25825;DHT22;13658;44.534;18.694;2022-07-04T01:48:07;23.20;99.90
25825;DHT22;13658;44.534;18.694;2022-07-04T01:50:34;23.20;99.90
25825;DHT22;13658;44.534;18.694;2022-07-04T01:53:00;23.00;99.90
25825;DHT22;13658;44.534;18.694;2022-07-04T01:55:26;22.90;99.90
25825;DHT22;13658;44.534;18.694;2022-07-04T01:57:52;22.90;99.90
25825;DHT22;13658;44.534;18.694;2022-07-04T02:00:18;22.90;99.90
25825;DHT22;13658;44.534;18.694;2022-07-04T02:03:03;22.90;99.90
25825;DHT22;13658;44.534;18.694;2022-07-04T02:05:29;22.90;99.90
25825;DHT22;13658;44.534;18.694;2022-07-04T02:07:55;22.80;99.90
25825;DHT22;13658;44.534;18.694;2022-07-04T02:10:22;22.70;99.90
25825;DHT22;13658;44.534;18.694;2022-07-04T02:12:48;22.70;99.90
25825;DHT22;13658;44.534;18.694;2022-07-04T02:15:37;22.70;99.90
25825;DHT22;13658;44.534;18.694;2022-07-04T02:18:06;22.60;99.90
25825;DHT22;13658;44.534;18.694;2022-07-04T02:20:33;22.60;99.90
25825;DHT22;13658;44.534;18.694;2022-07-04T02:22:59;22.50;99.90
25825;DHT22;13658;44.534;18.694;2022-07-04T02:25:25;22.50;99.90
25825;DHT22;13658;44.534;18.694;2022-07-04T02:27:54;22.50;99.90
25825;DHT22;13658;44.534;18.694;2022-07-04T02:30:20;22.50;99.90
25825;DHT22;13658;44.534;18.694;2022-07-04T02:32:46;22.40;99.90
25825;DHT22;13658;44.534;18.694;2022-07-04T02:35:13;22.40;99.90
25825;DHT22;13658;44.534;18.694;2022-07-04T02:37:39;22.40;99.90
25825;DHT22;13658;44.534;18.694;2022-07-04T02:40:06;22.30;99.90
25825;DHT22;13658;44.534;18.694;2022-07-04T02:42:33;22.30;99.90
25825;DHT22;13658;44.534;18.694;2022-07-04T02:44:59;22.50;99.90
25825;DHT22;13658;44.534;18.694;2022-07-04T02:47:25;22.50;99.90
25825;DHT22;13658;44.534;18.694;2022-07-04T02:49:52;22.60;99.90
25825;DHT22;13658;44.534;18.694;2022-07-04T02:52:18;22.50;99.90
25825;DHT22;13658;44.534;18.694;2022-07-04T02:54:44;22.40;99.90
25825;DHT22;13658;44.534;18.694;2022-07-04T02:57:11;22.40;99.90
25825;DHT22;13658;44.534;18.694;2022-07-04T02:59:37;22.30;99.90
25825;DHT22;13658;44.534;18.694;2022-07-04T03:02:03;22.30;99.90
25825;DHT22;13658;44.534;18.694;2022-07-04T03:04:29;22.30;99.90
25825;DHT22;13658;44.534;18.694;2022-07-04T03:06:55;22.30;99.90
25825;DHT22;13658;44.534;18.694;2022-07-04T03:09:21;22.30;99.90
25825;DHT22;13658;44.534;18.694;2022-07-04T03:11:47;22.40;99.90
25825;DHT22;13658;44.534;18.694;2022-07-04T03:14:14;22.30;99.90
25825;DHT22;13658;44.534;18.694;2022-07-04T03:16:40;22.20;99.90
25825;DHT22;13658;44.534;18.694;2022-07-04T03:19:06;22.20;99.90
25825;DHT22;13658;44.534;18.694;2022-07-04T03:21:32;22.20;99.90
25825;DHT22;13658;44.534;18.694;2022-07-04T03:23:58;22.10;99.90
25825;DHT22;13658;44.534;18.694;2022-07-04T03:26:33;22.10;99.90
25825;DHT22;13658;44.534;18.694;2022-07-04T03:29:00;22.10;99.90
25825;DHT22;13658;44.534;18.694;2022-07-04T03:31:27;22.00;99.90
25825;DHT22;13658;44.534;18.694;2022-07-04T03:33:54;22.00;99.90
25825;DHT22;13658;44.534;18.694;2022-07-04T03:36:21;21.80;99.90
25825;DHT22;13658;44.534;18.694;2022-07-04T03:38:47;21.80;99.90
25825;DHT22;13658;44.534;18.694;2022-07-04T03:41:13;21.80;99.90
25825;DHT22;13658;44.534;18.694;2022-07-04T03:43:39;21.80;99.90
25825;DHT22;13658;44.534;18.694;2022-07-04T03:46:05;21.80;99.90
25825;DHT22;13658;44.534;18.694;2022-07-04T03:48:31;21.70;99.90
25825;DHT22;13658;44.534;18.694;2022-07-04T03:50:57;21.70;99.90
25825;DHT22;13658;44.534;18.694;2022-07-04T03:53:23;21.80;99.90
25825;DHT22;13658;44.534;18.694;2022-07-04T03:55:49;21.70;99.90
25825;DHT22;13658;44.534;18.694;2022-07-04T03:58:15;21.70;99.90
25825;DHT22;13658;44.534;18.694;2022-07-04T04:00:41;21.70;99.90
25825;DHT22;13658;44.534;18.694;2022-07-04T04:03:09;21.80;99.90
25825;DHT22;13658;44.534;18.694;2022-07-04T04:05:55;21.80;99.90
25825;DHT22;13658;44.534;18.694;2022-07-04T04:08:23;21.80;99.90
25825;DHT22;13658;44.534;18.694;2022-07-04T04:10:50;21.90;99.90
25825;DHT22;13658;44.534;18.694;2022-07-04T04:13:18;21.90;99.90
25825;DHT22;13658;44.534;18.694;2022-07-04T04:15:44;22.00;99.90
25825;DHT22;13658;44.534;18.694;2022-07-04T04:18:10;22.00;99.90
25825;DHT22;13658;44.534;18.694;2022-07-04T04:20:36;22.10;99.90
25825;DHT22;13658;44.534;18.694;2022-07-04T04:23:02;22.10;99.90
25825;DHT22;13658;44.534;18.694;2022-07-04T04:25:28;22.10;99.90
25825;DHT22;13658;44.534;18.694;2022-07-04T04:27:54;22.10;99.90
25825;DHT22;13658;44.534;18.694;2022-07-04T04:30:20;22.10;99.90
25825;DHT22;13658;44.534;18.694;2022-07-04T04:32:46;22.20;99.90
25825;DHT22;13658;44.534;18.694;2022-07-04T04:35:12;22.30;99.90
25825;DHT22;13658;44.534;18.694;2022-07-04T04:37:38;22.40;99.90
25825;DHT22;13658;44.534;18.694;2022-07-04T04:40:04;22.40;99.90
25825;DHT22;13658;44.534;18.694;2022-07-04T04:42:30;22.50;99.90
25825;DHT22;13658;44.534;18.694;2022-07-04T04:44:56;22.60;99.90
25825;DHT22;13658;44.534;18.694;2022-07-04T04:47:22;22.60;99.90
25825;DHT22;13658;44.534;18.694;2022-07-04T04:49:48;22.70;99.90
25825;DHT22;13658;44.534;18.694;2022-07-04T04:52:14;22.90;99.90
25825;DHT22;13658;44.534;18.694;2022-07-04T04:54:40;22.90;99.90
25825;DHT22;13658;44.534;18.694;2022-07-04T04:57:06;23.00;99.90
25825;DHT22;13658;44.534;18.694;2022-07-04T04:59:33;23.30;99.90
25825;DHT22;13658;44.534;18.694;2022-07-04T05:01:59;23.60;99.90
25825;DHT22;13658;44.534;18.694;2022-07-04T05:04:25;23.60;99.90
25825;DHT22;13658;44.534;18.694;2022-07-04T05:06:51;23.40;99.90
25825;DHT22;13658;44.534;18.694;2022-07-04T05:09:17;23.40;99.90
25825;DHT22;13658;44.534;18.694;2022-07-04T05:11:45;23.50;99.90
25825;DHT22;13658;44.534;18.694;2022-07-04T05:14:11;23.50;99.90
25825;DHT22;13658;44.534;18.694;2022-07-04T05:16:37;23.60;99.90
25825;DHT22;13658;44.534;18.694;2022-07-04T05:19:03;23.70;99.90
25825;DHT22;13658;44.534;18.694;2022-07-04T05:21:29;24.00;99.90
25825;DHT22;13658;44.534;18.694;2022-07-04T05:23:56;24.00;99.90
25825;DHT22;13658;44.534;18.694;2022-07-04T05:26:22;24.10;99.90
25825;DHT22;13658;44.534;18.694;2022-07-04T05:28:48;24.20;99.90
25825;DHT22;13658;44.534;18.694;2022-07-04T05:31:14;24.20;99.90
25825;DHT22;13658;44.534;18.694;2022-07-04T05:33:40;24.30;99.90
25825;DHT22;13658;44.534;18.694;2022-07-04T05:36:07;24.40;99.90
25825;DHT22;13658;44.534;18.694;2022-07-04T05:38:33;24.40;99.90
25825;DHT22;13658;44.534;18.694;2022-07-04T05:41:00;24.60;99.90
25825;DHT22;13658;44.534;18.694;2022-07-04T05:43:26;24.80;99.90
25825;DHT22;13658;44.534;18.694;2022-07-04T05:45:52;25.00;99.90
25825;DHT22;13658;44.534;18.694;2022-07-04T05:48:18;25.30;99.90
25825;DHT22;13658;44.534;18.694;2022-07-04T05:50:45;25.60;99.90
25825;DHT22;13658;44.534;18.694;2022-07-04T05:53:11;25.80;99.90
25825;DHT22;13658;44.534;18.694;2022-07-04T05:55:37;26.10;99.90
25825;DHT22;13658;44.534;18.694;2022-07-04T05:58:03;26.40;99.90
25825;DHT22;13658;44.534;18.694;2022-07-04T06:00:29;26.30;99.90
25825;DHT22;13658;44.534;18.694;2022-07-04T06:02:55;26.40;99.90
25825;DHT22;13658;44.534;18.694;2022-07-04T06:05:21;26.50;99.90
25825;DHT22;13658;44.534;18.694;2022-07-04T06:07:47;26.40;99.90
25825;DHT22;13658;44.534;18.694;2022-07-04T06:10:14;26.60;99.90
25825;DHT22;13658;44.534;18.694;2022-07-04T06:12:40;26.80;99.90
25825;DHT22;13658;44.534;18.694;2022-07-04T06:15:07;27.00;99.90
25825;DHT22;13658;44.534;18.694;2022-07-04T06:17:36;27.00;99.90
25825;DHT22;13658;44.534;18.694;2022-07-04T06:20:03;27.20;99.90
25825;DHT22;13658;44.534;18.694;2022-07-04T06:22:44;27.20;99.90
25825;DHT22;13658;44.534;18.694;2022-07-04T06:25:16;27.40;99.90
25825;DHT22;13658;44.534;18.694;2022-07-04T06:27:43;27.50;99.90
25825;DHT22;13658;44.534;18.694;2022-07-04T06:30:09;27.80;99.90
25825;DHT22;13658;44.534;18.694;2022-07-04T06:35:08;28.10;99.90
25825;DHT22;13658;44.534;18.694;2022-07-04T06:37:52;28.00;99.90
25825;DHT22;13658;44.534;18.694;2022-07-04T06:40:18;28.20;99.90
25825;DHT22;13658;44.534;18.694;2022-07-04T06:42:44;28.40;99.90
25825;DHT22;13658;44.534;18.694;2022-07-04T06:45:10;28.50;99.90
25825;DHT22;13658;44.534;18.694;2022-07-04T06:47:36;28.40;99.90
25825;DHT22;13658;44.534;18.694;2022-07-04T06:50:02;28.30;99.90
25825;DHT22;13658;44.534;18.694;2022-07-04T06:52:28;28.40;99.90
25825;DHT22;13658;44.534;18.694;2022-07-04T06:54:54;28.50;99.90
25825;DHT22;13658;44.534;18.694;2022-07-04T06:57:20;28.90;99.90
25825;DHT22;13658;44.534;18.694;2022-07-04T06:59:46;29.20;99.90
25825;DHT22;13658;44.534;18.694;2022-07-04T07:02:12;29.30;99.90
25825;DHT22;13658;44.534;18.694;2022-07-04T07:04:38;29.10;99.90
25825;DHT22;13658;44.534;18.694;2022-07-04T07:07:06;28.80;99.90
25825;DHT22;13658;44.534;18.694;2022-07-04T07:09:32;29.10;99.90
25825;DHT22;13658;44.534;18.694;2022-07-04T07:11:58;29.30;99.90
25825;DHT22;13658;44.534;18.694;2022-07-04T07:14:24;29.50;99.90
25825;DHT22;13658;44.534;18.694;2022-07-04T07:16:50;29.50;99.90
25825;DHT22;13658;44.534;18.694;2022-07-04T07:19:16;30.10;99.90
25825;DHT22;13658;44.534;18.694;2022-07-04T07:21:42;30.50;99.90
25825;DHT22;13658;44.534;18.694;2022-07-04T07:24:08;30.80;99.90
25825;DHT22;13658;44.534;18.694;2022-07-04T07:26:34;31.10;99.90
25825;DHT22;13658;44.534;18.694;2022-07-04T07:29:00;31.20;99.90
25825;DHT22;13658;44.534;18.694;2022-07-04T07:31:26;31.50;99.90
25825;DHT22;13658;44.534;18.694;2022-07-04T07:33:53;31.20;99.90
25825;DHT22;13658;44.534;18.694;2022-07-04T07:36:21;31.50;99.90
25825;DHT22;13658;44.534;18.694;2022-07-04T07:38:50;31.80;99.90
25825;DHT22;13658;44.534;18.694;2022-07-04T07:41:18;31.80;99.90
25825;DHT22;13658;44.534;18.694;2022-07-04T07:43:44;31.50;99.90
25825;DHT22;13658;44.534;18.694;2022-07-04T07:46:10;32.00;99.90
25825;DHT22;13658;44.534;18.694;2022-07-04T07:48:36;32.40;99.90
25825;DHT22;13658;44.534;18.694;2022-07-04T07:51:02;32.60;99.90
25825;DHT22;13658;44.534;18.694;2022-07-04T07:53:28;32.60;99.90
25825;DHT22;13658;44.534;18.694;2022-07-04T07:55:54;33.00;99.90
25825;DHT22;13658;44.534;18.694;2022-07-04T07:58:20;32.80;99.90
25825;DHT22;13658;44.534;18.694;2022-07-04T08:00:47;33.10;99.90
25825;DHT22;13658;44.534;18.694;2022-07-04T08:03:13;32.70;99.90
25825;DHT22;13658;44.534;18.694;2022-07-04T08:05:57;32.10;99.90
25825;DHT22;13658;44.534;18.694;2022-07-04T08:08:23;32.90;99.90
25825;DHT22;13658;44.534;18.694;2022-07-04T08:10:50;33.30;99.90
25825;DHT22;13658;44.534;18.694;2022-07-04T08:13:16;33.20;99.90
25825;DHT22;13658;44.534;18.694;2022-07-04T08:15:42;33.50;99.90
25825;DHT22;13658;44.534;18.694;2022-07-04T08:18:08;33.70;99.90
25825;DHT22;13658;44.534;18.694;2022-07-04T08:20:34;34.10;99.90
25825;DHT22;13658;44.534;18.694;2022-07-04T08:23:00;34.20;99.90
25825;DHT22;13658;44.534;18.694;2022-07-04T08:25:28;34.40;99.90
25825;DHT22;13658;44.534;18.694;2022-07-04T08:27:55;34.60;99.90
25825;DHT22;13658;44.534;18.694;2022-07-04T08:30:23;34.40;99.90
25825;DHT22;13658;44.534;18.694;2022-07-04T08:32:50;33.70;99.90
25825;DHT22;13658;44.534;18.694;2022-07-04T08:35:17;33.60;99.90
25825;DHT22;13658;44.534;18.694;2022-07-04T08:37:43;33.40;99.90
25825;DHT22;13658;44.534;18.694;2022-07-04T08:40:10;33.60;99.90
25825;DHT22;13658;44.534;18.694;2022-07-04T08:42:38;33.90;99.90
25825;DHT22;13658;44.534;18.694;2022-07-04T08:45:06;33.70;99.90
25825;DHT22;13658;44.534;18.694;2022-07-04T08:47:35;34.00;99.90
25825;DHT22;13658;44.534;18.694;2022-07-04T08:50:08;34.00;99.90
25825;DHT22;13658;44.534;18.694;2022-07-04T08:52:41;34.20;99.90
25825;DHT22;13658;44.534;18.694;2022-07-04T08:55:09;34.60;99.90
25825;DHT22;13658;44.534;18.694;2022-07-04T08:57:55;34.90;99.90
25825;DHT22;13658;44.534;18.694;2022-07-04T09:00:40;34.90;99.90
25825;DHT22;13658;44.534;18.694;2022-07-04T09:03:07;34.60;99.90
25825;DHT22;13658;44.534;18.694;2022-07-04T09:05:34;34.40;99.90
25825;DHT22;13658;44.534;18.694;2022-07-04T09:08:02;33.70;99.90
25825;DHT22;13658;44.534;18.694;2022-07-04T09:10:30;33.60;99.90
25825;DHT22;13658;44.534;18.694;2022-07-04T09:12:57;34.60;99.90
25825;DHT22;13658;44.534;18.694;2022-07-04T09:15:25;34.70;99.90
25825;DHT22;13658;44.534;18.694;2022-07-04T09:17:51;35.00;99.90
25825;DHT22;13658;44.534;18.694;2022-07-04T09:20:19;35.00;99.90
25825;DHT22;13658;44.534;18.694;2022-07-04T09:22:47;35.10;99.90
25825;DHT22;13658;44.534;18.694;2022-07-04T09:25:13;34.80;99.90
25825;DHT22;13658;44.534;18.694;2022-07-04T09:27:48;34.90;99.90
25825;DHT22;13658;44.534;18.694;2022-07-04T09:30:32;34.60;99.90
25825;DHT22;13658;44.534;18.694;2022-07-04T09:32:58;35.50;99.90
25825;DHT22;13658;44.534;18.694;2022-07-04T09:35:29;36.10;99.90
25825;DHT22;13658;44.534;18.694;2022-07-04T09:37:57;36.30;99.90
25825;DHT22;13658;44.534;18.694;2022-07-04T09:40:27;36.40;99.90
25825;DHT22;13658;44.534;18.694;2022-07-04T09:42:55;35.80;99.90
25825;DHT22;13658;44.534;18.694;2022-07-04T09:45:21;35.50;99.90
25825;DHT22;13658;44.534;18.694;2022-07-04T09:47:55;35.30;99.90
25825;DHT22;13658;44.534;18.694;2022-07-04T09:50:22;34.60;99.90
25825;DHT22;13658;44.534;18.694;2022-07-04T09:52:52;35.20;99.90
25825;DHT22;13658;44.534;18.694;2022-07-04T09:58:14;35.70;99.90
25825;DHT22;13658;44.534;18.694;2022-07-04T10:00:45;35.70;99.90
25825;DHT22;13658;44.534;18.694;2022-07-04T10:03:27;35.80;99.90
25825;DHT22;13658;44.534;18.694;2022-07-04T10:06:14;35.80;99.90
25825;DHT22;13658;44.534;18.694;2022-07-04T10:08:44;35.60;99.90
25825;DHT22;13658;44.534;18.694;2022-07-04T10:11:11;35.60;99.90
25825;DHT22;13658;44.534;18.694;2022-07-04T10:13:38;36.20;99.90
25825;DHT22;13658;44.534;18.694;2022-07-04T10:16:05;36.30;99.90
25825;DHT22;13658;44.534;18.694;2022-07-04T10:18:32;36.20;99.90
25825;DHT22;13658;44.534;18.694;2022-07-04T10:21:00;36.10;99.90
25825;DHT22;13658;44.534;18.694;2022-07-04T10:23:26;36.50;99.90
25825;DHT22;13658;44.534;18.694;2022-07-04T10:25:57;37.00;99.90
25825;DHT22;13658;44.534;18.694;2022-07-04T10:28:23;37.30;99.90
25825;DHT22;13658;44.534;18.694;2022-07-04T10:30:55;37.40;99.90
25825;DHT22;13658;44.534;18.694;2022-07-04T10:33:25;37.40;99.90
25825;DHT22;13658;44.534;18.694;2022-07-04T10:35:55;37.60;99.90
25825;DHT22;13658;44.534;18.694;2022-07-04T10:38:23;37.20;99.90
25825;DHT22;13658;44.534;18.694;2022-07-04T10:40:55;37.60;99.90
25825;DHT22;13658;44.534;18.694;2022-07-04T10:45:52;37.40;99.90
25825;DHT22;13658;44.534;18.694;2022-07-04T10:48:22;38.30;99.90
25825;DHT22;13658;44.534;18.694;2022-07-04T10:53:28;38.20;99.90
25825;DHT22;13658;44.534;18.694;2022-07-04T10:58:44;36.90;99.90
25825;DHT22;13658;44.534;18.694;2022-07-04T11:03:49;35.50;99.90
25825;DHT22;13658;44.534;18.694;2022-07-04T11:09:17;34.50;99.90
25825;DHT22;13658;44.534;18.694;2022-07-04T11:17:00;33.80;99.90
25825;DHT22;13658;44.534;18.694;2022-07-04T11:19:26;33.80;99.90
25825;DHT22;13658;44.534;18.694;2022-07-04T11:21:57;34.10;99.90
25825;DHT22;13658;44.534;18.694;2022-07-04T11:24:24;33.90;99.90
25825;DHT22;13658;44.534;18.694;2022-07-04T11:26:50;33.90;99.90
25825;DHT22;13658;44.534;18.694;2022-07-04T11:29:16;34.00;99.90
25825;DHT22;13658;44.534;18.694;2022-07-04T11:31:45;34.10;99.90
25825;DHT22;13658;44.534;18.694;2022-07-04T11:34:12;34.10;99.90
25825;DHT22;13658;44.534;18.694;2022-07-04T11:36:40;34.10;99.90
25825;DHT22;13658;44.534;18.694;2022-07-04T11:39:08;33.30;99.90
25825;DHT22;13658;44.534;18.694;2022-07-04T11:41:37;33.70;99.90
25825;DHT22;13658;44.534;18.694;2022-07-04T11:44:26;33.70;99.90
25825;DHT22;13658;44.534;18.694;2022-07-04T11:47:20;33.70;99.90
25825;DHT22;13658;44.534;18.694;2022-07-04T11:52:16;33.70;99.90
25825;DHT22;13658;44.534;18.694;2022-07-04T11:54:46;33.90;99.90
25825;DHT22;13658;44.534;18.694;2022-07-04T11:59:57;34.40;99.90
25825;DHT22;13658;44.534;18.694;2022-07-04T12:02:24;34.50;99.90
25825;DHT22;13658;44.534;18.694;2022-07-04T12:04:51;34.10;99.90
25825;DHT22;13658;44.534;18.694;2022-07-04T12:07:19;34.10;99.90
25825;DHT22;13658;44.534;18.694;2022-07-04T12:09:47;34.10;99.90
25825;DHT22;13658;44.534;18.694;2022-07-04T12:12:14;34.00;99.90
25825;DHT22;13658;44.534;18.694;2022-07-04T12:14:57;34.00;99.90
25825;DHT22;13658;44.534;18.694;2022-07-04T12:17:30;33.30;99.90
25825;DHT22;13658;44.534;18.694;2022-07-04T12:19:58;33.50;99.90
25825;DHT22;13658;44.534;18.694;2022-07-04T12:22:30;33.20;99.90
25825;DHT22;13658;44.534;18.694;2022-07-04T12:24:57;33.40;99.90
25825;DHT22;13658;44.534;18.694;2022-07-04T12:27:25;34.10;99.90
25825;DHT22;13658;44.534;18.694;2022-07-04T12:29:52;34.20;99.90
25825;DHT22;13658;44.534;18.694;2022-07-04T12:32:19;33.80;99.90
25825;DHT22;13658;44.534;18.694;2022-07-04T12:34:46;34.00;99.90
25825;DHT22;13658;44.534;18.694;2022-07-04T12:37:14;33.50;99.90
25825;DHT22;13658;44.534;18.694;2022-07-04T12:39:42;33.50;99.90
25825;DHT22;13658;44.534;18.694;2022-07-04T12:42:18;33.70;99.90
25825;DHT22;13658;44.534;18.694;2022-07-04T12:44:46;33.50;99.90
25825;DHT22;13658;44.534;18.694;2022-07-04T12:47:15;33.70;99.90
25825;DHT22;13658;44.534;18.694;2022-07-04T12:49:46;33.20;99.90
25825;DHT22;13658;44.534;18.694;2022-07-04T12:52:17;33.30;99.90
25825;DHT22;13658;44.534;18.694;2022-07-04T12:55:04;32.90;99.90
25825;DHT22;13658;44.534;18.694;2022-07-04T12:57:32;33.20;99.90
25825;DHT22;13658;44.534;18.694;2022-07-04T12:59:58;33.30;99.90
25825;DHT22;13658;44.534;18.694;2022-07-04T13:02:24;33.30;99.90
25825;DHT22;13658;44.534;18.694;2022-07-04T13:04:50;33.30;99.90
25825;DHT22;13658;44.534;18.694;2022-07-04T13:07:17;33.30;99.90
25825;DHT22;13658;44.534;18.694;2022-07-04T13:09:45;33.10;99.90
25825;DHT22;13658;44.534;18.694;2022-07-04T13:12:12;33.30;99.90
25825;DHT22;13658;44.534;18.694;2022-07-04T13:14:56;33.20;99.90
25825;DHT22;13658;44.534;18.694;2022-07-04T13:17:23;33.30;99.90
25825;DHT22;13658;44.534;18.694;2022-07-04T13:19:50;33.30;99.90
25825;DHT22;13658;44.534;18.694;2022-07-04T13:22:22;33.30;99.90
25825;DHT22;13658;44.534;18.694;2022-07-04T13:24:50;33.10;99.90
25825;DHT22;13658;44.534;18.694;2022-07-04T13:27:18;33.10;99.90
25825;DHT22;13658;44.534;18.694;2022-07-04T13:29:45;33.30;99.90
25825;DHT22;13658;44.534;18.694;2022-07-04T13:32:11;33.20;99.90
25825;DHT22;13658;44.534;18.694;2022-07-04T13:34:37;32.90;99.90
25825;DHT22;13658;44.534;18.694;2022-07-04T13:37:03;32.80;99.90
25825;DHT22;13658;44.534;18.694;2022-07-04T13:39:29;32.60;99.90
25825;DHT22;13658;44.534;18.694;2022-07-04T13:41:56;32.70;99.90
25825;DHT22;13658;44.534;18.694;2022-07-04T13:44:22;32.70;99.90
25825;DHT22;13658;44.534;18.694;2022-07-04T13:46:48;32.80;99.90
25825;DHT22;13658;44.534;18.694;2022-07-04T13:49:14;32.70;99.90
25825;DHT22;13658;44.534;18.694;2022-07-04T13:51:42;32.60;99.90
25825;DHT22;13658;44.534;18.694;2022-07-04T13:54:09;32.60;99.90
25825;DHT22;13658;44.534;18.694;2022-07-04T13:56:35;32.70;99.90
25825;DHT22;13658;44.534;18.694;2022-07-04T13:59:01;32.80;99.90
25825;DHT22;13658;44.534;18.694;2022-07-04T14:01:28;32.60;99.90
25825;DHT22;13658;44.534;18.694;2022-07-04T14:03:54;32.60;99.90
25825;DHT22;13658;44.534;18.694;2022-07-04T14:06:21;32.70;99.90
25825;DHT22;13658;44.534;18.694;2022-07-04T14:08:47;32.80;99.90
25825;DHT22;13658;44.534;18.694;2022-07-04T14:11:13;32.90;99.90
25825;DHT22;13658;44.534;18.694;2022-07-04T14:13:39;33.00;99.90
25825;DHT22;13658;44.534;18.694;2022-07-04T14:16:06;32.90;99.90
25825;DHT22;13658;44.534;18.694;2022-07-04T14:18:33;32.90;99.90
25825;DHT22;13658;44.534;18.694;2022-07-04T14:20:59;33.00;99.90
25825;DHT22;13658;44.534;18.694;2022-07-04T14:23:25;33.00;99.90
25825;DHT22;13658;44.534;18.694;2022-07-04T14:26:10;32.90;99.90
25825;DHT22;13658;44.534;18.694;2022-07-04T14:28:38;32.90;99.90
25825;DHT22;13658;44.534;18.694;2022-07-04T14:31:04;32.90;99.90
25825;DHT22;13658;44.534;18.694;2022-07-04T14:33:30;33.00;99.90
25825;DHT22;13658;44.534;18.694;2022-07-04T14:35:56;33.00;99.90
25825;DHT22;13658;44.534;18.694;2022-07-04T14:38:22;33.10;99.90
25825;DHT22;13658;44.534;18.694;2022-07-04T14:40:48;33.00;99.90
25825;DHT22;13658;44.534;18.694;2022-07-04T14:43:16;33.00;99.90
25825;DHT22;13658;44.534;18.694;2022-07-04T14:45:45;32.90;99.90
25825;DHT22;13658;44.534;18.694;2022-07-04T14:48:13;32.80;99.90
25825;DHT22;13658;44.534;18.694;2022-07-04T14:50:39;32.80;99.90
25825;DHT22;13658;44.534;18.694;2022-07-04T14:53:05;32.90;99.90
25825;DHT22;13658;44.534;18.694;2022-07-04T14:55:31;32.90;99.90
25825;DHT22;13658;44.534;18.694;2022-07-04T14:57:58;32.80;99.90
25825;DHT22;13658;44.534;18.694;2022-07-04T15:00:23;32.90;99.90
25825;DHT22;13658;44.534;18.694;2022-07-04T15:02:49;32.90;99.90
25825;DHT22;13658;44.534;18.694;2022-07-04T15:05:15;32.80;99.90
25825;DHT22;13658;44.534;18.694;2022-07-04T15:07:42;32.80;99.90
25825;DHT22;13658;44.534;18.694;2022-07-04T15:10:08;32.70;99.90
25825;DHT22;13658;44.534;18.694;2022-07-04T15:12:34;32.60;99.90
25825;DHT22;13658;44.534;18.694;2022-07-04T15:15:00;32.60;99.90
25825;DHT22;13658;44.534;18.694;2022-07-04T15:17:26;32.50;99.90
25825;DHT22;13658;44.534;18.694;2022-07-04T15:19:52;32.60;99.90
25825;DHT22;13658;44.534;18.694;2022-07-04T15:22:37;32.60;99.90
25825;DHT22;13658;44.534;18.694;2022-07-04T15:25:21;32.60;99.90
25825;DHT22;13658;44.534;18.694;2022-07-04T15:27:47;32.60;99.90
25825;DHT22;13658;44.534;18.694;2022-07-04T15:30:13;32.50;99.90
25825;DHT22;13658;44.534;18.694;2022-07-04T15:32:39;32.50;99.90
25825;DHT22;13658;44.534;18.694;2022-07-04T15:35:05;32.50;99.90
25825;DHT22;13658;44.534;18.694;2022-07-04T15:37:31;32.40;99.90
25825;DHT22;13658;44.534;18.694;2022-07-04T15:39:57;32.40;99.90
25825;DHT22;13658;44.534;18.694;2022-07-04T15:42:23;32.40;99.90
25825;DHT22;13658;44.534;18.694;2022-07-04T15:44:49;32.30;99.90
25825;DHT22;13658;44.534;18.694;2022-07-04T15:47:16;32.30;99.90